Time;durP1;ratioP1;P1;durP2;ratioP2;P2;SDS_P1;SDS_P2;PMS_P1;PMS_P2;Temp;Humidity;BMP_temperature;BMP_pressure;BME280_temperature;BME280_humidity;BME280_pressure;Samples;Min_cycle;Max_cycle;Signal;HPM_P1;HPM_P2
2022/12/11 00:01:15;;;;;;;0.80;0.80;;;;;;;12.63;100.00;93781.66;5051163;28;20432;-57
2022/12/11 00:03:44;;;;;;;0.40;0.30;;;;;;;12.86;100.00;93843.34;5051119;28;20434;-57
2022/12/11 00:06:15;;;;;;;0.30;0.30;;;;;;;12.93;100.00;93832.97;5051403;28;20425;-59
2022/12/11 00:08:44;;;;;;;0.63;0.63;;;;;;;13.04;100.00;93860.78;5051207;28;20425;-58
2022/12/11 00:11:13;;;;;;;0.30;0.30;;;;;;;13.12;100.00;93854.69;5051353;28;20502;-57
2022/12/11 00:13:43;;;;;;;0.80;0.30;;;;;;;13.04;100.00;93833.41;5050552;28;20429;-57
2022/12/11 00:16:11;;;;;;;0.40;0.30;;;;;;;13.18;100.00;93860.63;5051135;28;20412;-57
2022/12/11 00:18:40;;;;;;;0.40;0.30;;;;;;;13.27;100.00;93866.66;5050232;28;20471;-57
2022/12/11 00:21:12;;;;;;;0.40;0.40;;;;;;;13.13;100.00;93847.50;5067536;28;20437;-58
2022/12/11 00:23:42;;;;;;;0.47;0.43;;;;;;;13.22;100.00;93846.34;5071117;28;20429;-57
2022/12/11 00:26:14;;;;;;;0.77;0.77;;;;;;;13.16;100.00;93852.16;5070594;28;20526;-57
2022/12/11 00:28:45;;;;;;;0.60;0.40;;;;;;;13.12;100.00;93856.56;5071401;28;20433;-57
2022/12/11 00:31:18;;;;;;;0.40;0.30;;;;;;;13.18;100.00;93857.97;5071296;28;20477;-56
2022/12/11 00:33:47;;;;;;;0.60;0.50;;;;;;;13.09;100.00;93854.53;5073485;28;20443;-56
2022/12/11 00:36:18;;;;;;;0.40;0.30;;;;;;;12.97;100.00;93857.06;5074472;28;20541;-58
2022/12/11 00:38:47;;;;;;;0.77;0.40;;;;;;;12.95;100.00;93819.38;5074511;28;20425;-58
2022/12/11 00:41:16;;;;;;;0.40;0.40;;;;;;;12.83;100.00;93808.63;5074421;28;20455;-56
2022/12/11 00:43:46;;;;;;;2.20;1.73;;;;;;;12.78;100.00;93790.97;5074517;28;20467;-57
2022/12/11 00:46:15;;;;;;;0.50;0.50;;;;;;;12.61;100.00;93738.69;5074455;28;20436;-58
2022/12/11 00:48:45;;;;;;;18.93;2.30;;;;;;;12.96;100.00;93779.16;5074436;28;20456;-57
2022/12/11 00:51:13;;;;;;;0.30;0.30;;;;;;;13.04;100.00;93793.53;5073553;28;20479;-55
2022/12/11 00:53:41;;;;;;;0.50;0.50;;;;;;;12.93;100.00;93797.66;5074046;28;20483;-57
2022/12/11 00:56:12;;;;;;;1.17;0.87;;;;;;;12.89;100.00;93797.50;5074288;28;20442;-58
2022/12/11 00:58:40;;;;;;;0.37;0.30;;;;;;;13.04;100.00;93804.94;5074543;28;20536;-57
2022/12/11 01:01:12;;;;;;;0.53;0.53;;;;;;;13.11;100.00;93777.88;5054364;28;20867;-56
2022/12/11 01:03:41;;;;;;;10.40;0.40;;;;;;;13.32;100.00;93760.06;5054183;28;20512;-57
2022/12/11 01:06:14;;;;;;;0.40;0.30;;;;;;;13.48;100.00;93747.75;5053967;28;20483;-58
2022/12/11 01:08:42;;;;;;;0.30;0.20;;;;;;;13.52;100.00;93727.34;5054271;28;20449;-58
2022/12/11 01:11:12;;;;;;;0.30;0.20;;;;;;;13.45;100.00;93679.19;5053867;28;20570;-56
2022/12/11 01:13:41;;;;;;;4.77;2.00;;;;;;;13.58;100.00;93675.50;5053511;28;20465;-56
2022/12/11 01:16:13;;;;;;;0.40;0.30;;;;;;;13.17;100.00;93630.28;5053044;28;20448;-57
2022/12/11 01:18:42;;;;;;;0.30;0.30;;;;;;;13.50;100.00;93679.00;5053579;28;20930;-56
2022/12/11 01:21:13;;;;;;;0.40;0.40;;;;;;;13.52;100.00;93678.66;5053833;28;20431;-56
2022/12/11 01:23:41;;;;;;;12.53;1.80;;;;;;;13.31;100.00;93657.38;5053636;28;20447;-56
2022/12/11 01:26:11;;;;;;;1.07;1.00;;;;;;;13.50;100.00;93663.03;5052784;28;20473;-56
2022/12/11 01:28:40;;;;;;;0.30;0.20;;;;;;;13.52;100.00;93652.84;5053619;28;20437;-57
2022/12/11 01:31:09;;;;;;;0.33;0.30;;;;;;;13.68;100.00;93660.97;5053135;28;20552;-57
2022/12/11 01:33:39;;;;;;;26.90;0.80;;;;;;;13.73;100.00;93645.59;5053170;28;20942;-58
2022/12/11 01:36:09;;;;;;;0.30;0.23;;;;;;;13.85;100.00;93620.88;5053227;28;20429;-57
2022/12/11 01:38:38;;;;;;;0.40;0.40;;;;;;;13.86;100.00;93625.09;5053559;28;20434;-57
2022/12/11 01:41:06;;;;;;;0.30;0.20;;;;;;;13.88;100.00;93620.22;5053788;28;20440;-57
2022/12/11 01:43:35;;;;;;;1.23;0.60;;;;;;;13.98;100.00;93615.25;5053310;28;20434;-58
2022/12/11 01:46:03;;;;;;;0.40;0.37;;;;;;;13.88;100.00;93620.22;5053065;28;20441;-58
2022/12/11 01:48:32;;;;;;;3.27;1.07;;;;;;;13.77;100.00;93646.47;5053297;28;20429;-58
2022/12/11 01:51:11;;;;;;;0.50;0.50;;;;;;;13.72;100.00;93637.91;5053371;28;20473;-58
2022/12/11 01:53:43;;;;;;;0.40;0.30;;;;;;;13.68;100.00;93621.84;5053157;28;20472;-58
2022/12/11 01:56:11;;;;;;;0.37;0.27;;;;;;;13.68;100.00;93591.78;5053083;28;20524;-58
2022/12/11 01:58:44;;;;;;;0.30;0.20;;;;;;;13.90;100.00;93608.13;5053127;28;20429;-58
2022/12/11 02:01:18;;;;;;;0.60;0.53;;;;;;;13.88;100.00;93583.72;5052870;28;20438;-57
2022/12/11 02:03:46;;;;;;;1.27;0.70;;;;;;;13.97;100.00;93580.94;5053230;28;20460;-57
2022/12/11 02:06:35;;;;;;;0.30;0.30;;;;;;;13.99;100.00;93547.53;5052860;28;20528;-57
2022/12/11 02:09:06;;;;;;;2.87;0.90;;;;;;;14.06;100.00;93570.19;5052762;28;20453;-57
2022/12/11 02:11:55;;;;;;;0.80;0.80;;;;;;;14.11;100.00;93575.28;5052893;28;20472;-57
2022/12/11 02:14:32;;;;;;;0.53;0.40;;;;;;;14.18;100.00;93572.84;5052461;28;20978;-57
2022/12/11 02:17:07;;;;;;;0.53;0.53;;;;;;;14.34;100.00;93573.75;5052642;28;20913;-57
2022/12/11 02:19:49;;;;;;;0.97;0.97;;;;;;;14.20;100.00;93539.41;5052610;28;20431;-57
2022/12/11 02:22:27;;;;;;;1.13;1.13;;;;;;;14.42;100.00;93546.97;5052401;28;20921;-56
2022/12/11 02:25:09;;;;;;;0.40;0.40;;;;;;;14.45;100.00;93556.19;5052812;28;20423;-57
2022/12/11 02:27:44;;;;;;;0.40;0.30;;;;;;;14.55;100.00;93566.38;5052693;28;20436;-57
2022/12/11 02:30:16;;;;;;;9.83;2.10;;;;;;;14.55;100.00;93582.38;5052600;28;20512;-58
2022/12/11 02:32:48;;;;;;;0.67;0.30;;;;;;;14.56;100.00;93583.94;5052439;28;20489;-57
2022/12/11 02:35:22;;;;;;;0.30;0.20;;;;;;;14.59;100.00;93588.63;5052644;28;20513;-57
2022/12/11 02:37:56;;;;;;;0.40;0.30;;;;;;;14.49;100.00;93589.06;5052256;28;20434;-57
2022/12/11 02:40:28;;;;;;;0.40;0.40;;;;;;;14.39;100.00;93610.84;5052357;28;20430;-57
2022/12/11 02:43:00;;;;;;;0.30;0.20;;;;;;;14.41;100.00;93605.94;5052507;28;20440;-58
2022/12/11 02:45:31;;;;;;;0.40;0.30;;;;;;;14.33;100.00;93618.28;5052511;28;20427;-57
2022/12/11 02:48:03;;;;;;;0.80;0.80;;;;;;;14.34;100.00;93601.19;5052075;28;21001;-57
2022/12/11 02:50:33;;;;;;;4.43;1.87;;;;;;;14.36;100.00;93611.50;5052109;28;20444;-57
2022/12/11 02:53:04;;;;;;;0.83;0.83;;;;;;;14.41;100.00;93603.28;5052027;28;20496;-58
2022/12/11 02:55:35;;;;;;;0.30;0.30;;;;;;;14.47;100.00;93602.72;5051975;28;20433;-57
2022/12/11 02:58:09;;;;;;;0.30;0.20;;;;;;;14.37;100.00;93602.41;5052271;28;20438;-57
2022/12/11 03:00:39;;;;;;;9.63;1.03;;;;;;;14.40;100.00;93623.81;5052044;28;20513;-57
2022/12/11 03:03:08;;;;;;;0.40;0.30;;;;;;;14.40;100.00;93610.50;5051851;28;20430;-57
2022/12/11 03:05:36;;;;;;;1.43;1.43;;;;;;;14.47;100.00;93608.03;5051952;28;20947;-58
2022/12/11 03:08:05;;;;;;;0.30;0.20;;;;;;;14.44;100.00;93621.28;5051892;28;20441;-57
2022/12/11 03:10:33;;;;;;;0.30;0.30;;;;;;;14.06;100.00;93549.66;5051648;28;20446;-57
2022/12/11 03:13:03;;;;;;;0.40;0.40;;;;;;;14.50;100.00;93619.94;5051715;28;20561;-57
2022/12/11 03:15:40;;;;;;;0.40;0.20;;;;;;;14.47;100.00;93628.63;5051950;28;20437;-57
2022/12/11 03:18:18;;;;;;;0.40;0.30;;;;;;;14.45;100.00;93636.16;5051698;28;20443;-57
2022/12/11 03:20:57;;;;;;;1.33;0.40;;;;;;;14.39;100.00;93621.50;5051695;28;20526;-57
2022/12/11 03:23:31;;;;;;;0.30;0.20;;;;;;;14.40;100.00;93604.38;5051861;28;20430;-57
2022/12/11 03:26:03;;;;;;;0.43;0.40;;;;;;;14.36;100.00;93612.28;5051935;28;20795;-57
2022/12/11 03:28:38;;;;;;;0.40;0.30;;;;;;;14.50;100.00;93601.28;5051851;28;20759;-57
2022/12/11 03:31:10;;;;;;;0.50;0.40;;;;;;;14.50;100.00;93612.72;5051523;28;20524;-57
2022/12/11 03:33:44;;;;;;;0.30;0.20;;;;;;;14.26;100.00;93585.28;5051095;28;20922;-56
2022/12/11 03:36:16;;;;;;;0.30;0.20;;;;;;;14.46;100.00;93629.72;5051802;28;20816;-56
2022/12/11 03:38:50;;;;;;;0.40;0.30;;;;;;;14.58;100.00;93624.38;5051779;28;20446;-57
2022/12/11 03:41:23;;;;;;;0.30;0.20;;;;;;;14.55;100.00;93604.50;5051410;28;20424;-56
2022/12/11 03:43:54;;;;;;;1.80;0.50;;;;;;;14.61;100.00;93613.81;5051300;28;20501;-57
2022/12/11 03:46:27;;;;;;;0.30;0.20;;;;;;;14.56;100.00;93602.59;5050925;28;20517;-57
2022/12/11 03:49:01;;;;;;;0.40;0.30;;;;;;;14.49;100.00;93616.50;5051455;28;20509;-56
2022/12/11 03:51:32;;;;;;;0.40;0.30;;;;;;;14.30;100.00;93594.94;5051002;28;20430;-56
2022/12/11 03:54:01;;;;;;;0.43;0.43;;;;;;;14.37;100.00;93613.06;5051033;28;20485;-56
2022/12/11 03:56:33;;;;;;;0.40;0.40;;;;;;;14.21;100.00;93602.28;5051047;28;20521;-56
2022/12/11 03:59:02;;;;;;;0.30;0.20;;;;;;;14.16;100.00;93637.13;5050341;28;20434;-56
2022/12/11 04:01:30;;;;;;;0.30;0.20;;;;;;;14.08;100.00;93647.88;5051259;28;20532;-56
2022/12/11 04:04:00;;;;;;;0.30;0.20;;;;;;;14.17;100.00;93646.66;5051541;28;20442;-56
2022/12/11 04:06:28;;;;;;;7.97;0.93;;;;;;;13.94;100.00;93643.63;5051354;28;20514;-56
2022/12/11 04:08:57;;;;;;;0.70;0.67;;;;;;;13.82;100.00;93662.25;5054244;28;20464;-56
2022/12/11 04:11:38;;;;;;;0.37;0.30;;;;;;;13.91;100.00;93662.16;5055249;28;20442;-56
2022/12/11 04:16:54;;;;;;;0.40;0.30;;;;;;;13.93;100.00;93660.72;5055473;28;20822;-56
2022/12/11 04:24:56;;;;;;;0.40;0.30;;;;;;;14.02;100.00;93653.41;5055037;28;20437;-56
2022/12/11 04:30:14;;;;;;;0.97;0.60;;;;;;;14.06;100.00;93666.06;5054943;28;20438;-57
2022/12/11 04:32:42;;;;;;;0.30;0.20;;;;;;;13.98;100.00;93667.72;5054870;28;20568;-56
2022/12/11 04:35:13;;;;;;;6.50;0.33;;;;;;;13.99;100.00;93674.59;5054877;28;20433;-57
2022/12/11 04:37:41;;;;;;;9.53;0.73;;;;;;;13.90;100.00;93668.59;5055105;28;20430;-56
2022/12/11 04:40:12;;;;;;;0.30;0.20;;;;;;;14.06;100.00;93672.19;5054732;28;20439;-57
2022/12/11 04:42:41;;;;;;;0.40;0.40;;;;;;;14.20;100.00;93672.63;5054887;28;20471;-57
2022/12/11 04:45:11;;;;;;;0.30;0.20;;;;;;;14.26;100.00;93665.22;5054723;28;20515;-57
2022/12/11 04:47:40;;;;;;;0.33;0.27;;;;;;;14.24;100.00;93667.44;5059850;28;20425;-57
2022/12/11 04:50:12;;;;;;;0.80;0.40;;;;;;;14.15;100.00;93675.50;5074640;28;20454;-57
2022/12/11 04:52:42;;;;;;;0.30;0.23;;;;;;;14.21;100.00;93668.88;5073920;28;20500;-57
2022/12/11 04:55:11;;;;;;;0.30;0.20;;;;;;;14.29;100.00;93676.00;5074197;28;20907;-57
2022/12/11 04:57:40;;;;;;;0.40;0.30;;;;;;;14.30;100.00;93671.44;5074235;28;20431;-57
2022/12/11 05:00:11;;;;;;;0.30;0.20;;;;;;;14.16;100.00;93676.31;5074463;28;20920;-57
2022/12/11 05:02:41;;;;;;;0.40;0.30;;;;;;;14.10;100.00;93678.41;5073357;28;20448;-56
2022/12/11 05:05:11;;;;;;;0.60;0.60;;;;;;;14.09;100.00;93678.75;5074282;28;20434;-56
2022/12/11 05:07:42;;;;;;;0.37;0.30;;;;;;;13.95;100.00;93655.06;5074117;28;20428;-56
2022/12/11 05:10:10;;;;;;;0.40;0.40;;;;;;;14.18;100.00;93698.06;5073974;28;20502;-56
2022/12/11 05:12:39;;;;;;;0.50;0.43;;;;;;;13.77;100.00;93714.91;5074046;28;20475;-56
2022/12/11 05:15:08;;;;;;;3.53;0.83;;;;;;;13.83;100.00;93719.72;5073890;28;20436;-56
2022/12/11 05:17:37;;;;;;;2.50;1.37;;;;;;;13.93;100.00;93714.00;5073984;28;20436;-57
2022/12/11 05:20:06;;;;;;;1.87;1.77;;;;;;;13.96;100.00;93702.66;5073010;28;20511;-57
2022/12/11 05:22:34;;;;;;;1.47;0.90;;;;;;;14.07;100.00;93699.56;5073964;28;20523;-57
2022/12/11 05:25:05;;;;;;;0.40;0.40;;;;;;;13.87;100.00;93690.53;5074276;28;20429;-58
2022/12/11 05:27:33;;;;;;;0.40;0.30;;;;;;;13.85;100.00;93720.16;5073885;28;20950;-57
2022/12/11 05:30:01;;;;;;;2.10;1.70;;;;;;;13.72;100.00;93742.53;5073822;28;20925;-57
2022/12/11 05:32:30;;;;;;;0.67;0.67;;;;;;;13.89;100.00;93726.38;5073684;28;22353;-57
2022/12/11 05:34:58;;;;;;;0.40;0.30;;;;;;;14.02;100.00;93724.53;5074045;28;20922;-55
2022/12/11 05:37:26;;;;;;;1.07;0.97;;;;;;;14.11;100.00;93716.47;5073701;28;20571;-55
2022/12/11 05:39:54;;;;;;;0.90;0.90;;;;;;;13.74;100.00;93657.78;5073878;28;20759;-56
2022/12/11 05:42:24;;;;;;;0.90;0.90;;;;;;;13.86;100.00;93727.03;5073793;28;20802;-56
2022/12/11 05:44:56;;;;;;;0.70;0.70;;;;;;;13.91;100.00;93737.50;5073320;28;20436;-56
2022/12/11 05:47:24;;;;;;;0.50;0.47;;;;;;;13.85;100.00;93732.69;5073297;28;20437;-56
2022/12/11 05:49:52;;;;;;;0.63;0.60;;;;;;;13.76;100.00;93716.78;5073456;28;20424;-56
2022/12/11 05:52:21;;;;;;;0.50;0.50;;;;;;;13.86;100.00;93716.38;5073021;28;20428;-56
2022/12/11 05:54:49;;;;;;;0.60;0.40;;;;;;;13.92;100.00;93725.75;5073599;28;20491;-56
2022/12/11 05:57:18;;;;;;;0.70;0.40;;;;;;;13.89;100.00;93729.06;5072575;28;20936;-57
2022/12/11 05:59:47;;;;;;;0.40;0.30;;;;;;;13.88;100.00;93726.72;5073259;28;20443;-56
2022/12/11 06:02:16;;;;;;;0.50;0.50;;;;;;;13.59;100.00;93743.56;5073172;28;20446;-56
2022/12/11 06:04:44;;;;;;;1.83;1.00;;;;;;;13.52;100.00;93743.31;5072151;28;20431;-56
2022/12/11 06:07:13;;;;;;;1.37;0.97;;;;;;;13.48;100.00;93747.75;5073019;28;20447;-56
2022/12/11 06:09:41;;;;;;;0.40;0.30;;;;;;;13.59;100.00;93743.56;5072904;28;20527;-57
2022/12/11 06:12:10;;;;;;;1.40;0.93;;;;;;;13.70;100.00;93739.41;5072867;28;20427;-56
2022/12/11 06:14:39;;;;;;;2.93;2.27;;;;;;;13.51;100.00;93725.78;5072975;28;20467;-57
2022/12/11 06:17:09;;;;;;;0.97;0.97;;;;;;;13.45;100.00;93731.63;5072964;28;20427;-56
2022/12/11 06:19:37;;;;;;;1.30;1.20;;;;;;;13.41;100.00;93736.81;5072646;28;20900;-56
2022/12/11 06:22:06;;;;;;;4.93;0.83;;;;;;;13.46;100.00;93752.59;5072658;28;20447;-57
2022/12/11 06:24:34;;;;;;;3.13;0.83;;;;;;;13.55;100.00;93755.97;5072703;28;20508;-56
2022/12/11 06:27:02;;;;;;;1.10;1.00;;;;;;;13.68;100.00;93741.63;5072815;28;20520;-56
2022/12/11 06:29:30;;;;;;;1.77;1.67;;;;;;;13.48;100.00;93738.97;5072766;28;20463;-57
2022/12/11 06:31:59;;;;;;;5.00;2.70;;;;;;;13.27;100.00;93737.09;5072167;28;20913;-56
2022/12/11 06:34:29;;;;;;;3.10;2.57;;;;;;;13.30;100.00;93733.78;5071799;28;20538;-56
2022/12/11 06:36:57;;;;;;;2.63;2.30;;;;;;;13.41;100.00;93750.13;5072335;28;20523;-57
2022/12/11 06:39:25;;;;;;;4.33;2.43;;;;;;;13.19;100.00;93739.78;5072358;28;20440;-57
2022/12/11 06:41:53;;;;;;;7.70;2.10;;;;;;;12.90;100.00;93742.47;5072213;28;20526;-57
2022/12/11 06:44:22;;;;;;;2.37;1.97;;;;;;;13.10;100.00;93744.41;5072484;28;20431;-57
2022/12/11 06:46:50;;;;;;;5.10;1.70;;;;;;;13.17;100.00;93747.31;5072029;28;20425;-57
2022/12/11 06:49:18;;;;;;;2.30;1.57;;;;;;;13.07;100.00;93726.44;5072434;28;20436;-56
2022/12/11 06:51:48;;;;;;;2.17;1.50;;;;;;;13.44;100.00;93743.38;5071928;28;20535;-56
2022/12/11 06:54:16;;;;;;;2.40;2.30;;;;;;;13.17;100.00;93739.34;5071751;28;20480;-56
2022/12/11 06:56:45;;;;;;;8.83;4.73;;;;;;;12.99;100.00;93756.47;5071757;28;20451;-56
2022/12/11 06:59:13;;;;;;;4.57;2.93;;;;;;;13.23;100.00;93751.38;5071888;28;20439;-57
2022/12/11 07:01:41;;;;;;;36.07;2.00;;;;;;;13.44;100.00;93760.13;5072251;28;20536;-58
2022/12/11 07:04:10;;;;;;;3.60;0.70;;;;;;;13.40;100.00;93758.44;5071919;28;20430;-57
2022/12/11 07:06:38;;;;;;;2.43;2.27;;;;;;;13.75;100.00;93751.75;5071865;28;20442;-56
2022/12/11 07:09:08;;;;;;;5.20;4.80;;;;;;;13.80;100.00;93747.00;5071832;28;20523;-56
2022/12/11 07:11:37;;;;;;;1.23;1.13;;;;;;;13.70;100.00;93735.97;5072078;28;20426;-56
2022/12/11 07:14:05;;;;;;;1.37;1.27;;;;;;;13.88;100.00;93735.50;5071667;28;20533;-56
2022/12/11 07:16:33;;;;;;;1.87;1.77;;;;;;;13.94;100.00;93728.84;5072144;28;20432;-57
2022/12/11 07:19:02;;;;;;;1.40;1.30;;;;;;;14.11;100.00;93727.91;5071702;28;20432;-56
2022/12/11 07:21:30;;;;;;;1.47;1.13;;;;;;;14.12;100.00;93726.00;5071671;28;20452;-56
2022/12/11 07:23:58;;;;;;;1.57;0.60;;;;;;;14.09;100.00;93697.38;5070262;28;20519;-56
2022/12/11 07:26:28;;;;;;;2.53;2.20;;;;;;;13.98;100.00;93710.34;5069562;28;20523;-56
2022/12/11 07:28:57;;;;;;;1.03;1.03;;;;;;;13.64;100.00;93644.09;5070458;28;20425;-56
2022/12/11 07:31:28;;;;;;;4.33;3.50;;;;;;;13.75;100.00;93717.91;5070319;28;20425;-56
2022/12/11 07:33:58;;;;;;;2.60;2.07;;;;;;;13.87;100.00;93712.63;5071130;28;20465;-56
2022/12/11 07:36:27;;;;;;;2.77;2.63;;;;;;;14.14;100.00;93697.94;5071355;28;20451;-56
2022/12/11 07:38:55;;;;;;;2.47;2.27;;;;;;;14.27;100.00;93693.44;5071544;28;20425;-56
2022/12/11 07:41:26;;;;;;;0.90;0.87;;;;;;;14.22;100.00;93685.66;5071460;28;20856;-57
2022/12/11 07:43:56;;;;;;;0.70;0.70;;;;;;;14.53;100.00;93696.56;5074058;28;20637;-57
2022/12/11 07:46:26;;;;;;;0.87;0.87;;;;;;;14.38;100.00;93687.34;5075596;28;20423;-58
2022/12/11 07:48:55;;;;;;;1.83;1.67;;;;;;;14.49;100.00;93655.72;5075810;28;20429;-58
2022/12/11 07:51:26;;;;;;;1.63;1.53;;;;;;;14.66;100.00;93674.13;5075537;28;20456;-57
2022/12/11 07:53:57;;;;;;;1.97;1.50;;;;;;;14.75;100.00;93666.78;5075354;28;20523;-58
2022/12/11 07:56:26;;;;;;;1.87;1.77;;;;;;;14.20;100.00;93568.72;5075524;28;20426;-58
2022/12/11 07:58:58;;;;;;;0.50;0.50;;;;;;;14.88;100.00;93592.88;5075354;28;20426;-58
2022/12/11 08:01:28;;;;;;;0.40;0.40;;;;;;;15.68;100.00;93668.38;5075276;28;20436;-57
2022/12/11 08:03:57;;;;;;;1.20;1.20;;;;;;;16.30;100.00;93668.47;5075664;28;20840;-58
2022/12/11 08:06:27;;;;;;;0.50;0.50;;;;;;;16.59;100.00;93632.53;5075265;28;20432;-58
2022/12/11 08:08:57;;;;;;;0.67;0.60;;;;;;;17.01;100.00;93640.75;5075456;28;20808;-58
2022/12/11 08:11:25;;;;;;;3.13;0.60;;;;;;;17.29;100.00;93621.81;5075081;28;20460;-58
2022/12/11 08:13:54;;;;;;;0.80;0.77;;;;;;;17.38;100.00;93635.78;5074915;28;20483;-58
2022/12/11 08:16:24;;;;;;;2.87;1.40;;;;;;;17.06;100.00;93643.13;5075318;28;20438;-58
2022/12/11 08:18:53;;;;;;;1.13;0.83;;;;;;;16.93;100.00;93639.03;5075087;28;20421;-57
2022/12/11 08:21:22;;;;;;;0.67;0.53;;;;;;;17.25;100.00;93629.03;5074942;28;20940;-57
2022/12/11 08:23:52;;;;;;;0.70;0.70;;;;;;;17.48;100.00;93611.88;5074538;28;20508;-58
2022/12/11 08:26:23;;;;;;;0.93;0.93;;;;;;;17.93;100.00;93630.00;5074527;28;20517;-59
2022/12/11 08:28:51;;;;;;;5.70;1.60;;;;;;;18.31;100.00;93621.09;5074834;28;20426;-59
2022/12/11 08:31:20;;;;;;;2.40;1.23;;;;;;;17.67;100.00;93622.63;5074787;28;20422;-59
2022/12/11 08:33:51;;;;;;;0.77;0.77;;;;;;;18.23;99.46;93622.88;5074929;28;20425;-59
2022/12/11 08:36:21;;;;;;;0.80;0.70;;;;;;;17.95;99.24;93614.34;5074631;28;20421;-60
2022/12/11 08:38:50;;;;;;;1.13;1.00;;;;;;;17.82;100.00;93604.91;5074624;28;20417;-60
2022/12/11 08:41:21;;;;;;;0.50;0.50;;;;;;;17.76;100.00;93603.63;5074837;28;20914;-59
2022/12/11 08:43:51;;;;;;;0.70;0.70;;;;;;;17.97;100.00;93600.56;5074525;28;20453;-59
2022/12/11 08:46:19;;;;;;;12.07;0.80;;;;;;;18.57;100.00;93602.34;5074718;28;20414;-60
2022/12/11 08:48:48;;;;;;;0.50;0.47;;;;;;;18.99;99.34;93597.63;5074386;28;20817;-60
2022/12/11 08:51:21;;;;;;;1.13;1.07;;;;;;;18.45;95.38;93546.19;5074379;28;20476;-59
2022/12/11 08:53:50;;;;;;;1.60;0.80;;;;;;;19.10;96.42;93597.00;5073575;28;20465;-60
2022/12/11 08:56:20;;;;;;;0.60;0.57;;;;;;;18.65;94.85;93539.63;5074185;28;20472;-59
2022/12/11 08:58:48;;;;;;;0.70;0.63;;;;;;;19.08;99.80;93597.34;5074258;28;20992;-60
2022/12/11 09:01:20;;;;;;;1.47;1.00;;;;;;;18.18;100.00;93588.31;5074634;28;20492;-60
2022/12/11 09:03:49;;;;;;;1.80;1.70;;;;;;;18.09;100.00;93587.75;5074245;28;20463;-59
2022/12/11 09:06:20;;;;;;;5.20;1.47;;;;;;;18.05;100.00;93596.88;5074580;28;20475;-60
2022/12/11 09:08:49;;;;;;;3.00;1.00;;;;;;;17.77;100.00;93605.19;5074170;28;20568;-60
2022/12/11 09:11:22;;;;;;;1.57;1.03;;;;;;;18.04;100.00;93592.63;5074096;28;20483;-61
2022/12/11 09:13:50;;;;;;;1.20;1.10;;;;;;;18.10;100.00;93599.25;5074328;28;20432;-60
2022/12/11 09:16:22;;;;;;;4.73;1.00;;;;;;;17.85;100.00;93595.38;5073926;28;20466;-60
2022/12/11 09:18:52;;;;;;;0.97;0.97;;;;;;;18.04;100.00;93585.38;5074271;28;21071;-59
2022/12/11 09:21:23;;;;;;;1.77;1.67;;;;;;;17.50;100.00;93502.50;5073782;28;21063;-59
2022/12/11 09:23:54;;;;;;;1.53;0.77;;;;;;;18.24;100.00;93583.44;5073707;28;20453;-59
2022/12/11 09:26:24;;;;;;;4.20;0.80;;;;;;;18.67;100.00;93577.59;5073610;28;20528;-59
2022/12/11 09:28:52;;;;;;;1.90;0.80;;;;;;;18.32;96.48;93526.06;5073638;28;20508;-59
2022/12/11 09:31:28;;;;;;;0.60;0.40;;;;;;;18.31;91.27;93508.44;5073683;28;20453;-62
2022/12/11 09:34:00;;;;;;;0.73;0.70;;;;;;;18.70;88.78;93480.25;5073870;28;20422;-61
2022/12/11 09:36:41;;;;;;;0.40;0.30;;;;;;;19.02;86.73;93555.84;5073460;28;20548;-60
2022/12/11 09:39:24;;;;;;;0.50;0.30;;;;;;;18.13;87.31;93459.91;5073709;28;20424;-61
2022/12/11 09:42:02;;;;;;;0.50;0.30;;;;;;;18.53;87.70;93547.09;5073328;28;20491;-60
2022/12/11 09:44:38;;;;;;;0.50;0.40;;;;;;;18.46;90.88;93528.19;5073490;28;20433;-60
2022/12/11 09:47:21;;;;;;;0.40;0.30;;;;;;;17.92;90.18;93480.25;5073629;28;20418;-61
2022/12/11 09:49:55;;;;;;;0.40;0.20;;;;;;;18.21;87.36;93503.69;5073800;28;20480;-60
2022/12/11 09:52:34;;;;;;;0.67;0.37;;;;;;;18.87;87.49;93554.13;5073034;28;20433;-60
2022/12/11 09:55:10;;;;;;;2.10;1.17;;;;;;;19.02;86.99;93559.28;5073047;28;20606;-59
2022/12/11 09:57:48;;;;;;;0.40;0.30;;;;;;;19.17;81.91;93554.09;5073144;28;20851;-59
2022/12/11 10:00:24;;;;;;;0.97;0.97;;;;;;;19.00;86.37;93556.19;5072374;28;20422;-59
2022/12/11 10:03:22;;;;;;;0.50;0.50;;;;;;;19.11;83.24;93520.66;5072554;28;20874;-60
2022/12/11 10:06:01;;;;;;;1.13;1.03;;;;;;;19.42;83.64;93539.88;5072353;28;20433;-59
2022/12/11 10:08:43;;;;;;;0.50;0.43;;;;;;;18.88;81.23;93543.00;5073054;28;20800;-60
2022/12/11 10:11:45;;;;;;;0.60;0.40;;;;;;;18.64;75.61;93529.25;5073262;28;20432;-59
2022/12/11 10:14:28;;;;;;;0.40;0.30;;;;;;;18.82;73.31;93533.72;5072904;28;20422;-58
2022/12/11 10:17:02;;;;;;;5.33;0.60;;;;;;;18.74;74.54;93524.03;5072601;28;20530;-60
2022/12/11 10:19:32;;;;;;;0.40;0.27;;;;;;;19.48;68.05;93516.13;5072527;28;20436;-59
2022/12/11 10:22:01;;;;;;;0.53;0.53;;;;;;;19.72;69.03;93504.84;5072949;28;20794;-60
2022/12/11 10:24:37;;;;;;;0.47;0.33;;;;;;;19.77;71.12;93469.56;5072924;28;20493;-60
2022/12/11 10:27:30;;;;;;;0.40;0.30;;;;;;;19.86;67.75;93499.59;5072263;28;20461;-59
2022/12/11 10:30:07;;;;;;;0.40;0.30;;;;;;;19.43;70.77;93487.66;5072725;28;20425;-59
2022/12/11 10:32:43;;;;;;;0.40;0.30;;;;;;;19.37;69.17;93491.84;5072590;28;20445;-59
2022/12/11 10:35:20;;;;;;;0.60;0.30;;;;;;;19.06;68.90;93507.53;5072152;28;20476;-59
2022/12/11 10:37:49;;;;;;;0.50;0.40;;;;;;;18.63;67.72;93504.31;5072573;28;20804;-60
2022/12/11 10:40:22;;;;;;;0.50;0.27;;;;;;;18.78;70.19;93508.75;5073525;28;20971;-60
2022/12/11 10:42:54;;;;;;;0.40;0.20;;;;;;;18.60;69.37;93515.78;5072920;28;20417;-60
2022/12/11 10:45:23;;;;;;;0.40;0.20;;;;;;;18.60;65.73;93521.16;5072113;28;20430;-60
2022/12/11 10:48:02;;;;;;;0.40;0.30;;;;;;;18.62;65.72;93518.88;5072048;28;20755;-60
2022/12/11 10:50:30;;;;;;;2.33;0.80;;;;;;;18.34;66.72;93515.78;5072008;28;20951;-60
2022/12/11 10:52:59;;;;;;;0.40;0.30;;;;;;;17.82;69.19;93516.47;5071671;28;20500;-60
2022/12/11 10:55:38;;;;;;;0.50;0.40;;;;;;;17.91;70.71;93514.31;5071960;28;21012;-60
2022/12/11 10:58:06;;;;;;;1.17;1.07;;;;;;;18.06;68.48;93520.69;5071997;28;20930;-60
2022/12/11 11:00:38;;;;;;;0.40;0.20;;;;;;;17.95;68.04;93509.81;5072008;28;20445;-60
2022/12/11 11:03:21;;;;;;;0.50;0.50;;;;;;;17.92;67.93;93488.28;5072401;28;20501;-59
2022/12/11 11:05:50;;;;;;;0.40;0.20;;;;;;;17.88;68.79;93508.91;5072237;28;20441;-59
2022/12/11 11:08:21;;;;;;;0.40;0.20;;;;;;;17.71;72.54;93494.84;5072249;28;20428;-59
2022/12/11 11:10:53;;;;;;;0.40;0.30;;;;;;;17.89;68.09;93499.72;5072332;28;20841;-58
2022/12/11 11:13:23;;;;;;;1.27;0.40;;;;;;;17.82;69.05;93480.84;5072121;28;20422;-59
2022/12/11 11:16:00;;;;;;;0.40;0.30;;;;;;;18.36;73.35;93510.81;5071771;28;20556;-59
2022/12/11 11:18:30;;;;;;;0.40;0.20;;;;;;;19.13;67.04;93507.63;5072109;28;20487;-60
2022/12/11 11:20:59;;;;;;;0.53;0.47;;;;;;;19.11;65.34;93501.84;5071744;28;21060;-60
2022/12/11 11:23:29;;;;;;;0.40;0.30;;;;;;;18.89;65.86;93495.47;5071742;28;20418;-60
2022/12/11 11:26:01;;;;;;;0.47;0.47;;;;;;;18.56;64.32;93498.88;5071662;28;20432;-60
2022/12/11 11:28:34;;;;;;;0.80;0.40;;;;;;;18.73;67.34;93503.69;5071541;28;20421;-59
2022/12/11 11:31:06;;;;;;;0.80;0.80;;;;;;;18.62;64.61;93484.00;5071415;28;20454;-59
2022/12/11 11:33:36;;;;;;;1.03;0.93;;;;;;;17.87;65.87;93441.13;5071764;28;20465;-59
2022/12/11 11:36:07;;;;;;;0.40;0.30;;;;;;;18.04;65.72;93485.41;5071530;28;20531;-59
2022/12/11 11:38:39;;;;;;;1.47;0.50;;;;;;;17.55;65.70;93454.03;5071638;28;20422;-58
2022/12/11 11:41:15;;;;;;;3.30;1.53;;;;;;;17.59;63.67;93467.47;5071639;28;20472;-58
2022/12/11 11:43:46;;;;;;;0.40;0.30;;;;;;;18.15;67.61;93473.72;5071694;28;20425;-59
2022/12/11 11:46:20;;;;;;;0.40;0.20;;;;;;;18.08;65.73;93478.22;5071667;28;20500;-58
2022/12/11 11:48:59;;;;;;;0.40;0.20;;;;;;;17.78;64.51;93470.09;5071549;28;20952;-58
2022/12/11 11:51:33;;;;;;;0.40;0.20;;;;;;;17.12;65.06;93400.84;5071599;28;20465;-58
2022/12/11 11:54:04;;;;;;;0.40;0.30;;;;;;;17.04;66.98;93479.47;5071451;28;20828;-58
2022/12/11 11:56:36;;;;;;;0.40;0.20;;;;;;;16.98;66.97;93478.97;5071433;28;20461;-58